createdAt,value
2019-03-15T00:01:34.488Z,4.20
2019-03-15T00:04:05.885Z,4.20
2019-03-15T00:06:34.312Z,4.10
2019-03-15T00:09:03.758Z,4.10
2019-03-15T00:11:32.182Z,4.00
2019-03-15T00:14:00.605Z,4.00
2019-03-15T00:16:29.023Z,4.00
2019-03-15T00:31:18.542Z,3.90
2019-03-15T00:33:46.989Z,3.90
2019-03-15T00:36:15.416Z,3.90
2019-03-15T00:38:43.832Z,3.90
2019-03-15T00:41:12.261Z,3.90
2019-03-15T00:43:40.677Z,3.80
2019-03-15T00:48:37.185Z,3.80
2019-03-15T00:56:23.427Z,3.70
2019-03-15T00:58:51.842Z,3.70
2019-03-15T01:01:20.573Z,3.70
2019-03-15T01:03:49.481Z,3.60
2019-03-15T01:08:45.990Z,3.60
2019-03-15T01:11:14.430Z,3.50
2019-03-15T01:13:42.845Z,3.50
2019-03-15T01:33:28.550Z,3.40
2019-03-15T01:35:56.961Z,3.50
2019-03-15T01:38:25.381Z,3.50
2019-03-15T01:40:53.798Z,3.60
2019-03-15T01:45:50.307Z,3.60
2019-03-15T01:48:18.732Z,3.70
2019-03-15T01:50:47.151Z,3.70
2019-03-15T01:53:15.570Z,3.70
2019-03-15T02:00:40.899Z,3.70
2019-03-15T02:03:09.321Z,3.80
2019-03-15T02:05:37.742Z,3.80
2019-03-15T02:08:06.157Z,3.80
2019-03-15T02:10:34.573Z,3.90
2019-03-15T02:18:18.770Z,4.00
2019-03-15T02:25:43.505Z,4.10
2019-03-15T02:28:11.947Z,4.10
2019-03-15T02:33:08.458Z,4.10
2019-03-15T02:35:36.877Z,4.10
2019-03-15T02:38:05.296Z,4.10
2019-03-15T02:40:33.717Z,4.20
2019-03-15T02:45:30.302Z,4.20
2019-03-15T02:47:58.736Z,4.30
2019-03-15T03:00:19.647Z,4.30
2019-03-15T03:02:48.116Z,4.30
2019-03-15T03:05:16.536Z,4.30
2019-03-15T03:07:44.962Z,4.30
2019-03-15T03:15:10.257Z,4.40
2019-03-15T03:17:40.178Z,4.40
2019-03-15T03:20:09.451Z,4.50
2019-03-15T03:22:37.873Z,4.50
2019-03-15T03:25:07.034Z,4.50
2019-03-15T03:27:35.448Z,4.50
2019-03-15T03:30:04.537Z,4.40
2019-03-15T03:32:32.991Z,4.40
2019-03-15T03:35:01.407Z,4.40
2019-03-15T03:37:29.822Z,4.40
2019-03-15T03:42:26.722Z,4.40
2019-03-15T03:52:19.397Z,4.40
2019-03-15T04:02:12.117Z,4.30
2019-03-15T04:04:40.536Z,4.40
2019-03-15T04:09:37.349Z,4.30
2019-03-15T04:14:33.920Z,4.30
2019-03-15T04:17:02.338Z,4.30
2019-03-15T04:19:30.754Z,4.30
2019-03-15T04:21:59.165Z,4.40
2019-03-15T04:24:27.604Z,4.40
2019-03-15T04:29:24.170Z,4.50
2019-03-15T04:31:52.585Z,4.50
2019-03-15T04:34:21.000Z,4.50
2019-03-15T04:36:49.414Z,4.50
2019-03-15T04:39:17.829Z,4.50
2019-03-15T04:41:46.241Z,4.60
2019-03-15T04:44:14.668Z,4.60
2019-03-15T04:46:43.081Z,4.60
2019-03-15T04:56:55.397Z,4.70
2019-03-15T04:59:24.212Z,4.70
2019-03-15T05:01:52.892Z,4.70
2019-03-15T05:04:21.313Z,4.80
2019-03-15T05:06:49.732Z,4.80
2019-03-15T05:09:18.144Z,4.70
2019-03-15T05:11:46.554Z,4.80
2019-03-15T05:21:39.296Z,4.80
2019-03-15T05:26:35.800Z,4.80
2019-03-15T05:31:32.292Z,4.80
2019-03-15T05:36:28.817Z,4.80
2019-03-15T05:38:57.225Z,4.90
2019-03-15T05:41:25.899Z,4.90
2019-03-15T05:43:54.309Z,4.90
2019-03-15T05:46:22.737Z,4.90
2019-03-15T05:53:47.340Z,4.90
2019-03-15T05:56:15.765Z,4.90
2019-03-15T06:01:12.276Z,4.90
2019-03-15T06:03:48.616Z,4.90
2019-03-15T06:06:10.830Z,4.90
2019-03-15T06:08:39.245Z,4.90
2019-03-15T06:11:07.659Z,4.90
2019-03-15T06:13:36.376Z,4.90
2019-03-15T06:16:04.852Z,4.90
2019-03-15T06:23:29.437Z,4.90
2019-03-15T06:25:57.852Z,4.90
2019-03-15T06:30:54.352Z,4.90
2019-03-15T06:35:50.852Z,4.90
2019-03-15T06:38:19.261Z,4.90
2019-03-15T06:40:48.008Z,4.90
2019-03-15T06:43:16.432Z,4.90
2019-03-15T06:45:44.835Z,4.90
2019-03-15T06:55:37.493Z,4.80
2019-03-15T07:00:33.988Z,4.90
2019-03-15T07:05:30.502Z,4.80
2019-03-15T07:07:58.913Z,4.80
2019-03-15T07:10:27.331Z,4.80
2019-03-15T07:15:23.820Z,4.90
2019-03-15T07:17:52.240Z,4.90
2019-03-15T07:20:20.808Z,4.90
2019-03-15T07:30:15.020Z,5.00
2019-03-15T07:32:43.432Z,5.00
2019-03-15T07:35:12.066Z,5.00
2019-03-15T07:37:40.480Z,5.00
2019-03-15T07:40:10.523Z,5.10
2019-03-15T07:42:38.940Z,5.10
2019-03-15T07:50:17.069Z,5.10
2019-03-15T07:52:45.739Z,5.20
2019-03-15T08:00:13.150Z,5.30
2019-03-15T08:07:44.798Z,5.50
2019-03-15T08:10:13.215Z,5.50
2019-03-15T08:12:41.632Z,5.50
2019-03-15T08:15:11.818Z,5.50
2019-03-15T08:17:40.233Z,5.50
2019-03-15T08:20:11.559Z,5.50
2019-03-15T08:27:36.918Z,5.60
2019-03-15T08:30:13.401Z,5.60
2019-03-15T08:32:43.523Z,5.60
2019-03-15T08:35:12.697Z,5.60
2019-03-15T08:37:41.116Z,5.60
2019-03-15T08:40:11.833Z,5.60
2019-03-15T08:42:40.267Z,5.60
2019-03-15T08:45:12.015Z,5.70
2019-03-15T08:47:40.441Z,5.70
2019-03-15T08:50:14.740Z,5.70
2019-03-15T08:52:42.223Z,5.70
2019-03-15T08:55:12.747Z,5.70
2019-03-15T08:57:41.156Z,5.70
2019-03-15T09:02:44.593Z,5.70
2019-03-15T09:07:41.664Z,5.80
2019-03-15T09:10:22.665Z,5.80
2019-03-15T09:12:42.542Z,5.90
2019-03-15T09:17:39.882Z,6.00
2019-03-15T09:20:10.227Z,6.00
2019-03-15T09:22:38.697Z,6.10
2019-03-15T09:25:19.152Z,6.10
2019-03-15T09:32:40.204Z,6.10
2019-03-15T09:37:36.865Z,6.10
2019-03-15T09:40:08.584Z,6.20
2019-03-15T09:42:37.004Z,6.20
2019-03-15T09:45:08.173Z,6.30
2019-03-15T09:47:36.572Z,6.30
2019-03-15T09:50:21.512Z,6.40
2019-03-15T09:52:38.200Z,6.50
2019-03-15T09:55:09.060Z,6.50
2019-03-15T09:57:56.801Z,6.50
2019-03-15T10:00:25.536Z,6.60
2019-03-15T10:02:56.028Z,6.70
2019-03-15T10:05:24.253Z,6.70
2019-03-15T10:07:52.736Z,6.80
2019-03-15T10:10:21.368Z,6.90
2019-03-15T10:12:50.061Z,7.10
2019-03-15T10:15:31.108Z,7.10
2019-03-15T10:17:59.649Z,7.10
2019-03-15T10:20:28.452Z,7.20
2019-03-15T10:23:05.911Z,7.30
2019-03-15T10:25:27.851Z,7.40
2019-03-15T10:27:56.252Z,7.70
2019-03-15T10:30:24.971Z,7.70
2019-03-15T10:32:53.625Z,7.80
2019-03-15T10:35:22.038Z,8.00
2019-03-15T10:37:50.484Z,8.10
2019-03-15T10:40:21.253Z,8.30
2019-03-15T10:42:49.959Z,8.50
2019-03-15T10:45:18.529Z,8.50
2019-03-15T10:47:47.076Z,8.60
2019-03-15T10:50:19.380Z,8.70
2019-03-15T10:52:47.862Z,8.70
2019-03-15T10:55:16.468Z,8.80
2019-03-15T10:57:44.887Z,8.80
2019-03-15T11:00:15.512Z,8.90
2019-03-15T11:02:44.211Z,8.90
2019-03-15T11:05:12.688Z,9.00
2019-03-15T11:07:41.165Z,9.00
2019-03-15T11:10:11.738Z,9.00
2019-03-15T11:12:40.300Z,9.00
2019-03-15T11:15:11.324Z,9.10
2019-03-15T11:17:39.805Z,9.10
2019-03-15T11:20:10.371Z,9.20
2019-03-15T11:22:39.158Z,9.30
2019-03-15T11:25:10.424Z,9.30
2019-03-15T11:27:38.832Z,9.30
2019-03-15T11:30:15.049Z,9.40
2019-03-15T11:32:43.462Z,9.40
2019-03-15T11:35:13.088Z,9.50
2019-03-15T11:37:41.504Z,9.50
2019-03-15T11:40:14.609Z,9.50
2019-03-15T11:42:43.151Z,9.50
2019-03-15T11:45:13.119Z,9.50
2019-03-15T11:48:01.333Z,9.60
2019-03-15T11:50:15.091Z,9.60
2019-03-15T11:52:43.497Z,9.60
2019-03-15T11:55:11.947Z,9.60
2019-03-15T11:57:40.436Z,9.60
2019-03-15T12:00:17.002Z,9.60
2019-03-15T12:02:45.474Z,9.50
2019-03-15T12:05:14.524Z,9.50
2019-03-15T12:07:43.303Z,9.50
2019-03-15T12:10:14.203Z,9.50
2019-03-15T12:12:42.685Z,9.50
2019-03-15T12:15:12.539Z,9.60
2019-03-15T12:17:41.017Z,9.60
2019-03-15T12:20:10.981Z,9.60
2019-03-15T12:22:39.389Z,9.60
2019-03-15T12:25:09.265Z,9.60
2019-03-15T12:27:37.671Z,9.60
2019-03-15T12:30:16.674Z,9.60
2019-03-15T12:32:45.352Z,9.60
2019-03-15T12:35:14.746Z,9.60
2019-03-15T12:37:43.610Z,9.60
2019-03-15T12:40:18.661Z,9.70
2019-03-15T12:42:47.135Z,9.70
2019-03-15T12:45:16.147Z,9.70
2019-03-15T12:47:44.671Z,9.80
2019-03-15T12:50:14.350Z,9.80
2019-03-15T12:52:47.751Z,9.90
2019-03-15T12:55:14.806Z,10.00
2019-03-15T12:57:43.312Z,10.10
2019-03-15T13:00:20.041Z,10.20
2019-03-15T13:02:48.678Z,10.40
2019-03-15T13:05:17.153Z,10.50
2019-03-15T13:07:45.729Z,10.50
2019-03-15T13:10:21.517Z,10.50
2019-03-15T13:12:49.952Z,10.50
2019-03-15T13:15:18.845Z,10.70
2019-03-15T13:17:47.773Z,10.70
2019-03-15T13:20:17.237Z,10.90
2019-03-15T13:22:45.729Z,11.00
2019-03-15T13:25:14.173Z,11.00
2019-03-15T13:27:42.766Z,11.00
2019-03-15T13:30:17.267Z,11.00
2019-03-15T13:32:45.681Z,11.10
2019-03-15T13:35:14.176Z,11.10
2019-03-15T13:37:43.360Z,11.10
2019-03-15T13:40:14.419Z,11.20
2019-03-15T13:42:42.901Z,11.20
2019-03-15T13:45:12.647Z,11.10
2019-03-15T13:47:41.501Z,11.10
2019-03-15T13:50:29.686Z,11.10
2019-03-15T13:57:54.622Z,11.00
2019-03-15T14:00:23.047Z,10.90
2019-03-15T14:02:51.504Z,10.90
2019-03-15T14:05:19.957Z,10.90
2019-03-15T14:07:48.645Z,10.80
2019-03-15T14:10:17.402Z,10.80
2019-03-15T14:12:45.817Z,10.80
2019-03-15T14:15:19.510Z,10.80
2019-03-15T14:17:47.978Z,10.80
2019-03-15T14:20:16.390Z,10.80
2019-03-15T14:22:44.813Z,10.70
2019-03-15T14:25:26.551Z,10.70
2019-03-15T14:27:54.982Z,10.70
2019-03-15T14:30:23.392Z,10.60
2019-03-15T14:35:19.896Z,10.70
2019-03-15T14:40:16.686Z,10.80
2019-03-15T14:42:45.193Z,10.80
2019-03-15T14:45:14.529Z,10.90
2019-03-15T14:47:42.954Z,10.90
2019-03-15T14:52:40.537Z,10.90
2019-03-15T14:55:10.090Z,10.90
2019-03-15T14:57:51.264Z,10.80
2019-03-15T15:02:39.888Z,10.70
2019-03-15T15:05:10.242Z,10.80
2019-03-15T15:07:38.688Z,10.80
2019-03-15T15:10:15.586Z,10.80
2019-03-15T15:12:44.082Z,10.70
2019-03-15T15:15:14.057Z,10.70
2019-03-15T15:17:42.487Z,10.70
2019-03-15T15:20:11.635Z,10.60
2019-03-15T15:27:37.593Z,10.60
2019-03-15T15:30:11.523Z,10.50
2019-03-15T15:32:39.938Z,10.50
2019-03-15T15:35:10.412Z,10.50
2019-03-15T15:37:39.127Z,10.50
2019-03-15T15:40:13.548Z,10.50
2019-03-15T15:42:42.233Z,10.50
2019-03-15T15:45:11.994Z,10.50
2019-03-15T15:47:40.413Z,10.50
2019-03-15T15:50:10.938Z,10.50
2019-03-15T15:52:39.355Z,10.50
2019-03-15T15:55:12.109Z,10.50
2019-03-15T15:57:40.537Z,10.50
2019-03-15T16:00:16.414Z,10.40
2019-03-15T16:05:13.058Z,10.40
2019-03-15T16:07:41.476Z,10.40
2019-03-15T16:10:11.632Z,10.30
2019-03-15T16:12:40.061Z,10.30
2019-03-15T16:15:16.494Z,10.30
2019-03-15T16:17:45.622Z,10.20
2019-03-15T16:20:14.414Z,10.20
2019-03-15T16:22:42.848Z,10.10
2019-03-15T16:25:11.994Z,10.10
2019-03-15T16:27:40.408Z,10.10
2019-03-15T16:30:13.796Z,10.00
2019-03-15T16:32:42.222Z,10.00
2019-03-15T16:35:12.273Z,10.00
2019-03-15T16:37:40.759Z,9.90
2019-03-15T16:40:14.028Z,9.90
2019-03-15T16:42:42.532Z,9.90
2019-03-15T16:47:43.896Z,9.90
2019-03-15T16:50:13.824Z,9.90
2019-03-15T16:52:42.237Z,9.90
2019-03-15T16:55:11.980Z,9.80
2019-03-15T16:57:40.703Z,9.80
2019-03-15T17:00:14.118Z,9.80
2019-03-15T17:02:42.704Z,9.80
2019-03-15T17:07:39.774Z,9.80
2019-03-15T17:10:20.162Z,9.80
2019-03-15T17:12:48.577Z,9.80
2019-03-15T17:17:48.604Z,9.80
2019-03-15T17:20:17.034Z,9.70
2019-03-15T17:25:13.540Z,9.70
2019-03-15T17:30:14.601Z,9.60
2019-03-15T17:32:43.029Z,9.60
2019-03-15T17:35:13.903Z,9.60
2019-03-15T17:37:42.444Z,9.60
2019-03-15T17:40:12.913Z,9.60
2019-03-15T17:42:41.325Z,9.60
2019-03-15T17:45:10.945Z,9.60
2019-03-15T17:52:46.134Z,9.60
2019-03-15T17:55:16.455Z,9.60
2019-03-15T17:57:45.787Z,9.60
2019-03-15T18:00:24.845Z,9.60
2019-03-15T18:02:53.260Z,9.60
2019-03-15T18:05:22.016Z,9.60
2019-03-15T18:07:50.520Z,9.60
2019-03-15T18:10:18.931Z,9.60
2019-03-15T18:12:47.340Z,9.60
2019-03-15T18:17:43.868Z,9.60
2019-03-15T18:20:12.336Z,9.60
2019-03-15T18:22:40.749Z,9.60
2019-03-15T18:25:10.404Z,9.60
2019-03-15T18:27:38.817Z,9.60
2019-03-15T18:30:17.117Z,9.60
2019-03-15T18:32:45.593Z,9.60
2019-03-15T18:35:14.584Z,9.50
2019-03-15T18:40:12.874Z,9.50
2019-03-15T18:42:41.402Z,9.60
2019-03-15T18:45:12.297Z,9.60
2019-03-15T18:47:40.968Z,9.60
2019-03-15T18:52:56.880Z,9.60
2019-03-15T18:55:25.292Z,9.60
2019-03-15T18:57:53.696Z,9.60
2019-03-15T19:00:24.660Z,9.60
2019-03-15T19:02:53.433Z,9.60
2019-03-15T19:05:21.948Z,9.60
2019-03-15T19:07:50.429Z,9.60
2019-03-15T19:10:18.851Z,9.60
2019-03-15T19:12:47.568Z,9.50
2019-03-15T19:15:18.282Z,9.50
2019-03-15T19:17:47.042Z,9.60
2019-03-15T19:20:16.705Z,9.60
2019-03-15T19:22:45.275Z,9.50
2019-03-15T19:25:14.557Z,9.50
2019-03-15T19:27:43.024Z,9.50
2019-03-15T19:30:18.913Z,9.50
2019-03-15T19:32:47.668Z,9.50
2019-03-15T19:35:16.265Z,9.50
2019-03-15T19:37:44.732Z,9.50
2019-03-15T19:40:32.520Z,9.50
2019-03-15T19:43:00.990Z,9.50
2019-03-15T19:50:25.585Z,9.40
2019-03-15T19:55:22.412Z,9.50
2019-03-15T19:57:50.828Z,9.50
2019-03-15T20:00:22.462Z,9.50
2019-03-15T20:02:50.868Z,9.40
2019-03-15T20:05:19.354Z,9.40
2019-03-15T20:07:47.966Z,9.40
2019-03-15T20:10:37.522Z,9.50
2019-03-15T20:13:05.936Z,9.50
2019-03-15T20:15:34.812Z,9.40
2019-03-15T20:18:03.420Z,9.40
2019-03-15T20:20:31.991Z,9.40
2019-03-15T20:23:00.420Z,9.40
2019-03-15T20:25:28.845Z,9.40
2019-03-15T20:27:57.539Z,9.40
2019-03-15T20:30:27.110Z,9.40
2019-03-15T20:32:55.676Z,9.40
2019-03-15T20:35:24.114Z,9.30
2019-03-15T20:37:52.582Z,9.30
2019-03-15T20:40:21.065Z,9.30
2019-03-15T20:42:49.512Z,9.30
2019-03-15T20:45:22.426Z,9.30
2019-03-15T20:47:50.852Z,9.30
2019-03-15T20:50:19.261Z,9.30
2019-03-15T20:55:15.750Z,9.30
2019-03-15T20:58:03.776Z,9.20
2019-03-15T21:00:35.993Z,9.20
2019-03-15T21:03:02.659Z,9.20
2019-03-15T21:05:31.071Z,9.20
2019-03-15T21:07:59.492Z,9.20
2019-03-15T21:10:27.897Z,9.20
2019-03-15T21:12:56.322Z,9.20
2019-03-15T21:15:24.828Z,9.20
2019-03-15T21:17:53.240Z,9.20
2019-03-15T21:20:22.891Z,9.20
2019-03-15T21:22:51.540Z,9.20
2019-03-15T21:25:19.960Z,9.20
2019-03-15T21:27:53.998Z,9.20
2019-03-15T21:30:21.271Z,9.20
2019-03-15T21:32:49.757Z,9.10
2019-03-15T21:35:18.197Z,9.10
2019-03-15T21:37:46.652Z,9.10
2019-03-15T21:40:16.490Z,9.10
2019-03-15T21:42:45.056Z,9.10
2019-03-15T21:45:13.926Z,9.00
2019-03-15T21:47:42.345Z,9.00
2019-03-15T21:50:12.755Z,9.10
2019-03-15T21:52:41.348Z,9.10
2019-03-15T21:55:09.953Z,9.10
2019-03-15T21:57:38.386Z,9.00
2019-03-15T22:00:10.239Z,9.00
2019-03-15T22:02:38.927Z,9.00
2019-03-15T22:05:08.508Z,9.10
2019-03-15T22:07:36.949Z,9.00
2019-03-15T22:10:08.501Z,9.00
2019-03-15T22:12:37.011Z,9.00
2019-03-15T22:15:07.614Z,9.00
2019-03-15T22:17:36.293Z,9.00
2019-03-15T22:20:07.932Z,9.00
2019-03-15T22:22:36.355Z,9.00
2019-03-15T22:25:06.613Z,9.00
2019-03-15T22:27:35.259Z,9.00
2019-03-15T22:30:04.708Z,9.10
2019-03-15T22:32:33.116Z,9.10
2019-03-15T22:35:01.782Z,9.00
2019-03-15T22:37:30.236Z,9.10
2019-03-15T22:39:58.965Z,9.10
2019-03-15T22:42:27.491Z,9.10
2019-03-15T22:45:15.572Z,9.10
2019-03-15T22:47:43.996Z,9.00
2019-03-15T22:50:13.649Z,9.00
2019-03-15T22:52:42.079Z,9.10
2019-03-15T22:55:11.023Z,9.10
2019-03-15T22:57:39.711Z,9.10
2019-03-15T23:00:14.161Z,9.00
2019-03-15T23:02:42.792Z,9.10
2019-03-15T23:05:11.520Z,9.10
2019-03-15T23:07:40.033Z,9.10
2019-03-15T23:10:10.394Z,9.10
2019-03-15T23:12:38.860Z,9.10
2019-03-15T23:15:13.467Z,9.10
2019-03-15T23:17:41.912Z,9.10
2019-03-15T23:20:11.871Z,9.10
2019-03-15T23:22:40.497Z,9.10
2019-03-15T23:25:09.338Z,9.10
2019-03-15T23:27:37.774Z,9.10
2019-03-15T23:30:16.932Z,9.10
2019-03-15T23:32:45.472Z,9.10
2019-03-15T23:35:13.875Z,9.10
2019-03-15T23:37:42.588Z,9.10
2019-03-15T23:40:12.679Z,9.20
2019-03-15T23:42:42.193Z,9.20
2019-03-15T23:45:11.338Z,9.10
2019-03-15T23:47:39.817Z,9.20
2019-03-15T23:50:10.958Z,9.20
2019-03-15T23:52:39.428Z,9.20
2019-03-15T23:55:08.653Z,9.20
2019-03-15T23:57:37.166Z,9.20
